Svitzer Leixoes — CSXW6 — position and weather

sailwx.info

Track history (hours):
 
Tides and Currents Weather Stations Pressure Air Temp Water Temp Dewpoint Dewpoint Depression Visibility Wind Speed Wind Dir Waves Ship Positions

Svitzer Leixoes

Last reported at 2015-Apr-18 18:33 UTC. Time now 2015-Apr-18 19:24 UTC.
Position N 38°42' W 009°10'.

Length 28 m; draft 3.9 m.

Type: Towing. MMSI: 263622000.

Date/timePositionNaut miles runAvg speedWind from/ knotsBaromVisibWave heightAir tempDewpointWater temp
2015-Apr-18 18:33N 38°42' W 009°10'0 0.0
2015-Apr-18 17:33N 38°42' W 009°10'0 0.0
2015-Apr-18 16:33N 38°42' W 009°10'1 0.5
2015-Apr-18 15:33N 38°42' W 009°10'0 0.4
2015-Apr-18 14:33N 38°42' W 009°10'0 0.2
2015-Apr-18 13:34N 38°42' W 009°10'0 0.0
2015-Apr-18 12:33N 38°42' W 009°10'0 0.0
2015-Apr-18 11:32N 38°42' W 009°10'0 0.0
2015-Apr-18 10:29N 38°42' W 009°10'0 0.0
2015-Apr-18 09:33N 38°42' W 009°10'0 0.4
2015-Apr-18 08:33N 38°42' W 009°10'0 0.4
2015-Apr-18 07:33N 38°42' W 009°10'0 0.0
2015-Apr-18 06:32N 38°42' W 009°10'0 0.0
2015-Apr-18 05:33N 38°42' W 009°10'0 0.0
2015-Apr-18 04:33N 38°42' W 009°10'0 0.0
2015-Apr-18 03:32N 38°42' W 009°10'5 4.9
2015-Apr-18 02:33N 38°41' W 009°04'3 3.0
2015-Apr-18 01:33N 38°41' W 009°08'2 2.0
2015-Apr-18 00:32N 38°42' W 009°10'0 0.0
2015-Apr-17 23:33N 38°42' W 009°10'0 0.0
2015-Apr-17 22:33N 38°42' W 009°10'0 0.0
2015-Apr-17 21:33N 38°42' W 009°10'0 0.0
2015-Apr-17 20:33N 38°42' W 009°10'0 0.0
2015-Apr-17 19:33N 38°42' W 009°10'0 0.0
2015-Apr-17 18:33N 38°42' W 009°10'0 0.0
2015-Apr-17 17:33N 38°42' W 009°10'3 3.2
2015-Apr-17 16:33N 38°44' W 009°06'2 2.0
2015-Apr-17 15:32N 38°42' W 009°08'2 2.2
2015-Apr-17 14:33N 38°40' W 009°09'2 1.9
2015-Apr-17 13:33N 38°42' W 009°10'0 0.0
2015-Apr-17 12:33N 38°42' W 009°10'0 0.0
2015-Apr-17 11:32N 38°42' W 009°10'0 0.0
2015-Apr-17 10:33N 38°42' W 009°10'0 0.0
2015-Apr-17 09:33N 38°42' W 009°10'0 0.0
2015-Apr-17 08:29N 38°42' W 009°10'0 0.0
2015-Apr-17 07:33N 38°42' W 009°10'0 0.0
2015-Apr-17 06:33N 38°42' W 009°10'0 0.5
2015-Apr-17 05:33N 38°42' W 009°10'0 0.5
2015-Apr-17 04:31N 38°42' W 009°10'0 0.0
2015-Apr-17 03:32N 38°42' W 009°10'0 0.0
2015-Apr-17 02:33N 38°42' W 009°10'0 0.0
2015-Apr-17 01:33N 38°42' W 009°10'0 0.0
2015-Apr-17 00:33N 38°42' W 009°10'0 0.0
2015-Apr-16 23:33N 38°42' W 009°10'0 0.0
2015-Apr-16 22:30N 38°42' W 009°10'0 0.0
2015-Apr-16 21:33N 38°42' W 009°10'0 0.0
2015-Apr-16 20:33N 38°42' W 009°10'0 0.0
2015-Apr-16 19:32N 38°42' W 009°10'0 0.0
2015-Apr-16 18:29N 38°42' W 009°10'0 0.0
2015-Apr-16 17:32N 38°42' W 009°10'0 0.0
2015-Apr-16 16:31N 38°42' W 009°10'0 0.0
2015-Apr-16 15:33N 38°42' W 009°10'0 0.0
2015-Apr-16 14:28N 38°42' W 009°10'3 3.7
2015-Apr-16 13:33N 38°44' W 009°06'1 0.9
2015-Apr-16 12:05N 38°43' W 009°07'3 5.8
2015-Apr-16 11:33N 38°40' W 009°09'1 0.5
2015-Apr-16 10:33N 38°41' W 009°08'4 3.7
2015-Apr-16 09:32N 38°41' W 009°13'3 3.0
2015-Apr-16 08:32N 38°42' W 009°10'0 0.0
2015-Apr-16 07:33N 38°42' W 009°10'0 0.0
2015-Apr-16 06:33N 38°42' W 009°10'0 0.0
2015-Apr-16 05:25N 38°42' W 009°10'0 0.0
2015-Apr-16 04:32N 38°42' W 009°10'0 0.0
2015-Apr-16 03:32N 38°42' W 009°10'0 0.0
2015-Apr-16 02:24N 38°42' W 009°10'0 0.0
2015-Apr-16 01:33N 38°42' W 009°10'0 0.0
2015-Apr-16 00:31N 38°42' W 009°10'0 0.0
2015-Apr-15 23:30N 38°42' W 009°10'0 0.0
2015-Apr-15 22:25N 38°42' W 009°10'0 0.0
2015-Apr-15 21:28N 38°42' W 009°10'0 0.0
2015-Apr-15 20:31N 38°42' W 009°10'0 0.0
2015-Apr-15 19:33N 38°42' W 009°10'0 0.0
2015-Apr-15 18:33N 38°42' W 009°10'2 1.6
2015-Apr-15 17:33N 38°41' W 009°08'2 1.5
2015-Apr-15 16:32N 38°42' W 009°10'0 0.3
2015-Apr-15 15:32N 38°42' W 009°10'0 0.0
2015-Apr-15 14:33N 38°42' W 009°10'0 0.0
2015-Apr-15 13:31N 38°42' W 009°10'3 3.4
2015-Apr-15 12:33N 38°41' W 009°14'1 0.6
2015-Apr-15 11:32N 38°41' W 009°14'0 0.3
2015-Apr-15 10:33N 38°40' W 009°14'3 3.4
2015-Apr-15 09:33N 38°42' W 009°10'0 0.3
2015-Apr-15 08:33N 38°42' W 009°11'1 0.9
2015-Apr-15 07:33N 38°42' W 009°10'0 0.0
2015-Apr-15 06:28N 38°42' W 009°10'0 0.0
2015-Apr-15 05:33N 38°42' W 009°10'0 0.0
2015-Apr-15 04:32N 38°42' W 009°10'0 0.0
2015-Apr-15 03:33N 38°42' W 009°10'0 0.0
2015-Apr-15 02:28N 38°42' W 009°10'0 0.0
2015-Apr-15 01:33N 38°42' W 009°10'0 0.0
2015-Apr-15 00:33N 38°42' W 009°10'0 0.0
2015-Apr-14 23:33N 38°42' W 009°10'0 0.0
2015-Apr-14 22:33N 38°42' W 009°10'0 0.0
2015-Apr-14 21:32N 38°42' W 009°10'0 0.0
2015-Apr-14 20:31N 38°42' W 009°10'0 0.0
2015-Apr-14 19:33N 38°42' W 009°10'0 0.0
2015-Apr-14 18:33N 38°42' W 009°10'0 0.0
2015-Apr-14 17:27N 38°42' W 009°10'0 0.0
2015-Apr-14 16:31N 38°42' W 009°10'0 0.0
2015-Apr-14 15:26N 38°42' W 009°10'0 0.0
2015-Apr-14 14:34N 38°42' W 009°10'0 0.0
2015-Apr-14 13:33N 38°42' W 009°10'0 0.0
2015-Apr-14 12:33N 38°42' W 009°10'0 0.0
2015-Apr-14 11:33N 38°42' W 009°10'0 0.0
2015-Apr-14 10:22N 38°42' W 009°10'0 0.3
2015-Apr-14 09:29N 38°42' W 009°10'1 1.3
2015-Apr-14 08:33N 38°41' W 009°11'1 1.5
2015-Apr-14 07:33N 38°42' W 009°10'0 0.0
2015-Apr-14 06:32N 38°42' W 009°10'0 0.0
2015-Apr-14 05:31N 38°42' W 009°10'0 0.0
2015-Apr-14 04:32N 38°42' W 009°10'0 0.0
2015-Apr-14 03:33N 38°42' W 009°10'0 0.0
2015-Apr-14 02:33N 38°42' W 009°10'0 0.0
2015-Apr-14 01:33N 38°42' W 009°10'0 0.0
2015-Apr-14 00:30N 38°42' W 009°10'0 0.0
2015-Apr-13 23:33N 38°42' W 009°10'0 0.0
2015-Apr-13 22:33N 38°42' W 009°10'0 0.1
2015-Apr-13 21:33N 38°42' W 009°09'4 3.7
2015-Apr-13 20:33N 38°40' W 009°05'4 3.7
2015-Apr-13 19:33N 38°42' W 009°10'0 0.0
2015-Apr-13 18:33N 38°42' W 009°10'0 0.0
2015-Apr-13 17:31N 38°42' W 009°10'0 0.0
2015-Apr-13 16:31N 38°42' W 009°10'0 0.0
2015-Apr-13 15:32N 38°42' W 009°10'0 0.0
2015-Apr-13 14:19N 38°42' W 009°10'0 0.0
2015-Apr-13 13:30N 38°42' W 009°10'0 0.0
2015-Apr-13 12:33N 38°42' W 009°10'0 0.0
2015-Apr-13 11:30N 38°42' W 009°10'0 0.0
2015-Apr-13 10:33N 38°42' W 009°10'0 0.0
2015-Apr-13 09:33N 38°42' W 009°10'0 0.1
2015-Apr-13 08:33N 38°42' W 009°09'0 0.0
2015-Apr-13 07:33N 38°42' W 009°09'0 0.2
2015-Apr-13 06:32N 38°42' W 009°10'0 0.0
2015-Apr-13 05:33N 38°42' W 009°10'0 0.0
2015-Apr-13 04:33N 38°42' W 009°10'0 0.0
2015-Apr-13 03:33N 38°42' W 009°10'0 0.0
2015-Apr-13 02:33N 38°42' W 009°10'0 0.0
2015-Apr-13 01:33N 38°42' W 009°10'0 0.0
2015-Apr-13 00:33N 38°42' W 009°10'0 0.0
2015-Apr-12 23:33N 38°42' W 009°10'0 0.0
2015-Apr-12 22:31N 38°42' W 009°10'0 0.0
2015-Apr-12 21:33N 38°42' W 009°10'0 0.0
2015-Apr-12 20:32N 38°42' W 009°10'0 0.0
2015-Apr-12 19:33N 38°42' W 009°10'0 0.0
2015-Apr-12 18:33N 38°42' W 009°10'0 0.0
2015-Apr-12 17:33N 38°42' W 009°10'0 0.0
2015-Apr-12 16:33N 38°42' W 009°10'0 0.0
2015-Apr-12 15:33N 38°42' W 009°10'0 0.0
2015-Apr-12 14:33N 38°42' W 009°10'0 0.0
2015-Apr-12 13:32N 38°42' W 009°10'0 0.0
2015-Apr-12 12:33N 38°42' W 009°10'0 0.0
2015-Apr-12 11:33N 38°42' W 009°10'0 0.0
2015-Apr-12 10:33N 38°42' W 009°10'0 0.0
2015-Apr-12 09:33N 38°42' W 009°10'0 0.0
2015-Apr-12 08:33N 38°42' W 009°10'0 0.0
2015-Apr-12 07:33N 38°42' W 009°10'0 0.0
2015-Apr-12 06:33N 38°42' W 009°10'0 0.0
2015-Apr-12 05:33N 38°42' W 009°10'0 0.0
2015-Apr-12 04:33N 38°42' W 009°10'0 0.0
2015-Apr-12 03:33N 38°42' W 009°10'0 0.0
2015-Apr-12 02:33N 38°42' W 009°10'0 0.0
2015-Apr-12 01:33N 38°42' W 009°10'0 0.0
2015-Apr-12 00:33N 38°42' W 009°10'0 0.0
2015-Apr-11 23:33N 38°42' W 009°10'0 0.0
2015-Apr-11 22:33N 38°42' W 009°10'0 0.0
2015-Apr-11 21:33N 38°42' W 009°10'2 2.5
2015-Apr-11 20:33N 38°41' W 009°07'2 2.5
2015-Apr-11 19:33N 38°41' W 009°04'4 3.8
2015-Apr-11 18:33N 38°41' W 009°09'1 1.0
2015-Apr-11 17:31N 38°42' W 009°10'2 1.9
2015-Apr-11 16:33N 38°42' W 009°07'2 1.9
2015-Apr-11 15:33N 38°42' W 009°10'0 0.0
2015-Apr-11 14:32N 38°42' W 009°10'0 0.0
2015-Apr-11 13:33N 38°42' W 009°10'0 0.0
2015-Apr-11 12:30N 38°42' W 009°10'0 0.0
2015-Apr-11 11:33N 38°42' W 009°10'0 0.0
2015-Apr-11 10:33N 38°42' W 009°10'0 0.0
2015-Apr-11 09:33N 38°42' W 009°10'0 0.0
2015-Apr-11 08:33N 38°42' W 009°10'0 0.0
2015-Apr-11 07:32N 38°42' W 009°10'0 0.0
2015-Apr-11 06:33N 38°42' W 009°10'0 0.0
2015-Apr-11 05:33N 38°42' W 009°10'0 0.0
2015-Apr-11 04:33N 38°42' W 009°10'0 0.0
2015-Apr-11 03:32N 38°42' W 009°10'0 0.0
2015-Apr-11 02:31N 38°42' W 009°10'0 0.0
2015-Apr-11 01:33N 38°42' W 009°10'0 0.0
2015-Apr-11 00:32N 38°42' W 009°10'0 0.0
2015-Apr-10 23:33N 38°42' W 009°10'0 0.0
2015-Apr-10 22:33N 38°42' W 009°10'0 0.0
2015-Apr-10 21:29N 38°42' W 009°10'0 0.0
2015-Apr-10 20:33N 38°42' W 009°10'0 0.0
2015-Apr-10 19:33N 38°42' W 009°10'2 2.0
2015-Apr-10 18:33N 38°40' W 009°09'2 2.0
2015-Apr-10 17:33N 38°42' W 009°10'0 0.0
2015-Apr-10 16:32N 38°42' W 009°10'0 0.0
2015-Apr-10 15:33N 38°42' W 009°10'0 0.0
2015-Apr-10 14:31N 38°42' W 009°10'0 0.0
2015-Apr-10 13:30N 38°42' W 009°10'0 0.0
2015-Apr-10 12:27N 38°42' W 009°10'0 0.0
2015-Apr-10 11:33N 38°42' W 009°10'0 0.0
2015-Apr-10 10:33N 38°42' W 009°10'0 0.0
2015-Apr-10 09:33N 38°42' W 009°10'0 0.0
2015-Apr-10 08:33N 38°42' W 009°10'0 0.0
2015-Apr-10 07:32N 38°42' W 009°10'0 0.0
2015-Apr-10 06:33N 38°42' W 009°10'0 0.0
2015-Apr-10 05:31N 38°42' W 009°10'0 0.0
2015-Apr-10 04:33N 38°42' W 009°10'0 0.0
2015-Apr-10 03:32N 38°42' W 009°10'0 0.0
2015-Apr-10 02:33N 38°42' W 009°10'0 0.0
2015-Apr-10 01:31N 38°42' W 009°10'0 0.0
2015-Apr-10 00:32N 38°42' W 009°10'0 0.0
2015-Apr-09 23:33N 38°42' W 009°10'0 0.0
2015-Apr-09 22:33N 38°42' W 009°10'0 0.0
2015-Apr-09 21:33N 38°42' W 009°10'0 0.0
2015-Apr-09 20:33N 38°42' W 009°10'0 0.0
2015-Apr-09 19:33N 38°42' W 009°10'0 0.0
2015-Apr-09 18:31N 38°42' W 009°10'0 0.0
2015-Apr-09 17:33N 38°42' W 009°10'0 0.0
2015-Apr-09 16:31N 38°42' W 009°10'0 0.0
2015-Apr-09 15:33N 38°42' W 009°10'0 0.0
2015-Apr-09 14:32N 38°42' W 009°10'0 0.0
2015-Apr-09 13:33N 38°42' W 009°10'0 0.0
2015-Apr-09 12:33N 38°42' W 009°10'0 0.0
2015-Apr-09 11:31N 38°42' W 009°10'0 0.0
2015-Apr-09 10:32N 38°42' W 009°10'0 0.0
2015-Apr-09 09:33N 38°42' W 009°10'0 0.0
2015-Apr-09 08:33N 38°42' W 009°10'0 0.0
2015-Apr-09 07:33N 38°42' W 009°10'0 0.0
2015-Apr-09 06:33N 38°42' W 009°10'0 0.0
2015-Apr-09 05:33N 38°42' W 009°10'0 0.0
2015-Apr-09 04:33N 38°42' W 009°10'0 0.0
2015-Apr-09 03:33N 38°42' W 009°10'0 0.0
2015-Apr-09 02:31N 38°42' W 009°10'0 0.0
2015-Apr-09 01:33N 38°42' W 009°10'0 0.0
2015-Apr-09 00:33N 38°42' W 009°10'0 0.0
2015-Apr-08 23:33N 38°42' W 009°10'0 0.0
2015-Apr-08 22:33N 38°42' W 009°10'0 0.0
2015-Apr-08 21:32N 38°42' W 009°10'0 0.0
2015-Apr-08 20:31N 38°42' W 009°10'0 0.0
2015-Apr-08 19:33N 38°42' W 009°10'  
Track history (hours):
 
Tides and Currents Weather Stations Pressure Air Temp Water Temp Dewpoint Dewpoint Depression Visibility Wind Speed Wind Dir Waves Ship Positions

Svitzer Leixoes

Last reported at 2015-Apr-18 18:33 UTC. Time now 2015-Apr-18 19:24 UTC.
Position N 38°42' W 009°10'.

Length 28 m; draft 3.9 m.

Type: Towing. MMSI: 263622000.

Date/timePositionNaut miles runAvg speedWind from/ knotsBaromVisibWave heightAir tempDewpointWater temp
2015-Apr-18 18:33N 38°42' W 009°10'0 0.0
2015-Apr-18 17:33N 38°42' W 009°10'0 0.0
2015-Apr-18 16:33N 38°42' W 009°10'1 0.5
2015-Apr-18 15:33N 38°42' W 009°10'0 0.4
2015-Apr-18 14:33N 38°42' W 009°10'0 0.2
2015-Apr-18 13:34N 38°42' W 009°10'0 0.0
2015-Apr-18 12:33N 38°42' W 009°10'0 0.0
2015-Apr-18 11:32N 38°42' W 009°10'0 0.0
2015-Apr-18 10:29N 38°42' W 009°10'0 0.0
2015-Apr-18 09:33N 38°42' W 009°10'0 0.4
2015-Apr-18 08:33N 38°42' W 009°10'0 0.4
2015-Apr-18 07:33N 38°42' W 009°10'0 0.0
2015-Apr-18 06:32N 38°42' W 009°10'0 0.0
2015-Apr-18 05:33N 38°42' W 009°10'0 0.0
2015-Apr-18 04:33N 38°42' W 009°10'0 0.0
2015-Apr-18 03:32N 38°42' W 009°10'5 4.9
2015-Apr-18 02:33N 38°41' W 009°04'3 3.0
2015-Apr-18 01:33N 38°41' W 009°08'2 2.0
2015-Apr-18 00:32N 38°42' W 009°10'0 0.0
2015-Apr-17 23:33N 38°42' W 009°10'0 0.0
2015-Apr-17 22:33N 38°42' W 009°10'0 0.0
2015-Apr-17 21:33N 38°42' W 009°10'0 0.0
2015-Apr-17 20:33N 38°42' W 009°10'0 0.0
2015-Apr-17 19:33N 38°42' W 009°10'0 0.0
2015-Apr-17 18:33N 38°42' W 009°10'0 0.0
2015-Apr-17 17:33N 38°42' W 009°10'3 3.2
2015-Apr-17 16:33N 38°44' W 009°06'2 2.0
2015-Apr-17 15:32N 38°42' W 009°08'2 2.2
2015-Apr-17 14:33N 38°40' W 009°09'2 1.9
2015-Apr-17 13:33N 38°42' W 009°10'0 0.0
2015-Apr-17 12:33N 38°42' W 009°10'0 0.0
2015-Apr-17 11:32N 38°42' W 009°10'0 0.0
2015-Apr-17 10:33N 38°42' W 009°10'0 0.0
2015-Apr-17 09:33N 38°42' W 009°10'0 0.0
2015-Apr-17 08:29N 38°42' W 009°10'0 0.0
2015-Apr-17 07:33N 38°42' W 009°10'0 0.0
2015-Apr-17 06:33N 38°42' W 009°10'0 0.5
2015-Apr-17 05:33N 38°42' W 009°10'0 0.5
2015-Apr-17 04:31N 38°42' W 009°10'0 0.0
2015-Apr-17 03:32N 38°42' W 009°10'0 0.0
2015-Apr-17 02:33N 38°42' W 009°10'0 0.0
2015-Apr-17 01:33N 38°42' W 009°10'0 0.0
2015-Apr-17 00:33N 38°42' W 009°10'0 0.0
2015-Apr-16 23:33N 38°42' W 009°10'0 0.0
2015-Apr-16 22:30N 38°42' W 009°10'0 0.0
2015-Apr-16 21:33N 38°42' W 009°10'0 0.0
2015-Apr-16 20:33N 38°42' W 009°10'0 0.0
2015-Apr-16 19:32N 38°42' W 009°10'0 0.0
2015-Apr-16 18:29N 38°42' W 009°10'0 0.0
2015-Apr-16 17:32N 38°42' W 009°10'0 0.0
2015-Apr-16 16:31N 38°42' W 009°10'0 0.0
2015-Apr-16 15:33N 38°42' W 009°10'0 0.0
2015-Apr-16 14:28N 38°42' W 009°10'3 3.7
2015-Apr-16 13:33N 38°44' W 009°06'1 0.9
2015-Apr-16 12:05N 38°43' W 009°07'3 5.8
2015-Apr-16 11:33N 38°40' W 009°09'1 0.5
2015-Apr-16 10:33N 38°41' W 009°08'4 3.7
2015-Apr-16 09:32N 38°41' W 009°13'3 3.0
2015-Apr-16 08:32N 38°42' W 009°10'0 0.0
2015-Apr-16 07:33N 38°42' W 009°10'0 0.0
2015-Apr-16 06:33N 38°42' W 009°10'0 0.0
2015-Apr-16 05:25N 38°42' W 009°10'0 0.0
2015-Apr-16 04:32N 38°42' W 009°10'0 0.0
2015-Apr-16 03:32N 38°42' W 009°10'0 0.0
2015-Apr-16 02:24N 38°42' W 009°10'0 0.0
2015-Apr-16 01:33N 38°42' W 009°10'0 0.0
2015-Apr-16 00:31N 38°42' W 009°10'0 0.0
2015-Apr-15 23:30N 38°42' W 009°10'0 0.0
2015-Apr-15 22:25N 38°42' W 009°10'0 0.0
2015-Apr-15 21:28N 38°42' W 009°10'0 0.0
2015-Apr-15 20:31N 38°42' W 009°10'0 0.0
2015-Apr-15 19:33N 38°42' W 009°10'0 0.0
2015-Apr-15 18:33N 38°42' W 009°10'2 1.6
2015-Apr-15 17:33N 38°41' W 009°08'2 1.5
2015-Apr-15 16:32N 38°42' W 009°10'0 0.3
2015-Apr-15 15:32N 38°42' W 009°10'0 0.0
2015-Apr-15 14:33N 38°42' W 009°10'0 0.0
2015-Apr-15 13:31N 38°42' W 009°10'3 3.4
2015-Apr-15 12:33N 38°41' W 009°14'1 0.6
2015-Apr-15 11:32N 38°41' W 009°14'0 0.3
2015-Apr-15 10:33N 38°40' W 009°14'3 3.4
2015-Apr-15 09:33N 38°42' W 009°10'0 0.3
2015-Apr-15 08:33N 38°42' W 009°11'1 0.9
2015-Apr-15 07:33N 38°42' W 009°10'0 0.0
2015-Apr-15 06:28N 38°42' W 009°10'0 0.0
2015-Apr-15 05:33N 38°42' W 009°10'0 0.0
2015-Apr-15 04:32N 38°42' W 009°10'0 0.0
2015-Apr-15 03:33N 38°42' W 009°10'0 0.0
2015-Apr-15 02:28N 38°42' W 009°10'0 0.0
2015-Apr-15 01:33N 38°42' W 009°10'0 0.0
2015-Apr-15 00:33N 38°42' W 009°10'0 0.0
2015-Apr-14 23:33N 38°42' W 009°10'0 0.0
2015-Apr-14 22:33N 38°42' W 009°10'0 0.0
2015-Apr-14 21:32N 38°42' W 009°10'0 0.0
2015-Apr-14 20:31N 38°42' W 009°10'0 0.0
2015-Apr-14 19:33N 38°42' W 009°10'0 0.0
2015-Apr-14 18:33N 38°42' W 009°10'0 0.0
2015-Apr-14 17:27N 38°42' W 009°10'0 0.0
2015-Apr-14 16:31N 38°42' W 009°10'0 0.0
2015-Apr-14 15:26N 38°42' W 009°10'0 0.0
2015-Apr-14 14:34N 38°42' W 009°10'0 0.0
2015-Apr-14 13:33N 38°42' W 009°10'0 0.0
2015-Apr-14 12:33N 38°42' W 009°10'0 0.0
2015-Apr-14 11:33N 38°42' W 009°10'0 0.0
2015-Apr-14 10:22N 38°42' W 009°10'0 0.3
2015-Apr-14 09:29N 38°42' W 009°10'1 1.3
2015-Apr-14 08:33N 38°41' W 009°11'1 1.5
2015-Apr-14 07:33N 38°42' W 009°10'0 0.0
2015-Apr-14 06:32N 38°42' W 009°10'0 0.0
2015-Apr-14 05:31N 38°42' W 009°10'0 0.0
2015-Apr-14 04:32N 38°42' W 009°10'0 0.0
2015-Apr-14 03:33N 38°42' W 009°10'0 0.0
2015-Apr-14 02:33N 38°42' W 009°10'0 0.0
2015-Apr-14 01:33N 38°42' W 009°10'0 0.0
2015-Apr-14 00:30N 38°42' W 009°10'0 0.0
2015-Apr-13 23:33N 38°42' W 009°10'0 0.0
2015-Apr-13 22:33N 38°42' W 009°10'0 0.1
2015-Apr-13 21:33N 38°42' W 009°09'4 3.7
2015-Apr-13 20:33N 38°40' W 009°05'4 3.7
2015-Apr-13 19:33N 38°42' W 009°10'0 0.0
2015-Apr-13 18:33N 38°42' W 009°10'0 0.0
2015-Apr-13 17:31N 38°42' W 009°10'0 0.0
2015-Apr-13 16:31N 38°42' W 009°10'0 0.0
2015-Apr-13 15:32N 38°42' W 009°10'0 0.0
2015-Apr-13 14:19N 38°42' W 009°10'0 0.0
2015-Apr-13 13:30N 38°42' W 009°10'0 0.0
2015-Apr-13 12:33N 38°42' W 009°10'0 0.0
2015-Apr-13 11:30N 38°42' W 009°10'0 0.0
2015-Apr-13 10:33N 38°42' W 009°10'0 0.0
2015-Apr-13 09:33N 38°42' W 009°10'0 0.1
2015-Apr-13 08:33N 38°42' W 009°09'0 0.0
2015-Apr-13 07:33N 38°42' W 009°09'0 0.2
2015-Apr-13 06:32N 38°42' W 009°10'0 0.0
2015-Apr-13 05:33N 38°42' W 009°10'0 0.0
2015-Apr-13 04:33N 38°42' W 009°10'0 0.0
2015-Apr-13 03:33N 38°42' W 009°10'0 0.0
2015-Apr-13 02:33N 38°42' W 009°10'0 0.0
2015-Apr-13 01:33N 38°42' W 009°10'0 0.0
2015-Apr-13 00:33N 38°42' W 009°10'0 0.0
2015-Apr-12 23:33N 38°42' W 009°10'0 0.0
2015-Apr-12 22:31N 38°42' W 009°10'0 0.0
2015-Apr-12 21:33N 38°42' W 009°10'0 0.0
2015-Apr-12 20:32N 38°42' W 009°10'0 0.0
2015-Apr-12 19:33N 38°42' W 009°10'0 0.0
2015-Apr-12 18:33N 38°42' W 009°10'0 0.0
2015-Apr-12 17:33N 38°42' W 009°10'0 0.0
2015-Apr-12 16:33N 38°42' W 009°10'0 0.0
2015-Apr-12 15:33N 38°42' W 009°10'0 0.0
2015-Apr-12 14:33N 38°42' W 009°10'0 0.0
2015-Apr-12 13:32N 38°42' W 009°10'0 0.0
2015-Apr-12 12:33N 38°42' W 009°10'0 0.0
2015-Apr-12 11:33N 38°42' W 009°10'0 0.0
2015-Apr-12 10:33N 38°42' W 009°10'0 0.0
2015-Apr-12 09:33N 38°42' W 009°10'0 0.0
2015-Apr-12 08:33N 38°42' W 009°10'0 0.0
2015-Apr-12 07:33N 38°42' W 009°10'0 0.0
2015-Apr-12 06:33N 38°42' W 009°10'0 0.0
2015-Apr-12 05:33N 38°42' W 009°10'0 0.0
2015-Apr-12 04:33N 38°42' W 009°10'0 0.0
2015-Apr-12 03:33N 38°42' W 009°10'0 0.0
2015-Apr-12 02:33N 38°42' W 009°10'0 0.0
2015-Apr-12 01:33N 38°42' W 009°10'0 0.0
2015-Apr-12 00:33N 38°42' W 009°10'0 0.0
2015-Apr-11 23:33N 38°42' W 009°10'0 0.0
2015-Apr-11 22:33N 38°42' W 009°10'0 0.0
2015-Apr-11 21:33N 38°42' W 009°10'2 2.5
2015-Apr-11 20:33N 38°41' W 009°07'2 2.5
2015-Apr-11 19:33N 38°41' W 009°04'4 3.8
2015-Apr-11 18:33N 38°41' W 009°09'1 1.0
2015-Apr-11 17:31N 38°42' W 009°10'2 1.9
2015-Apr-11 16:33N 38°42' W 009°07'2 1.9
2015-Apr-11 15:33N 38°42' W 009°10'0 0.0
2015-Apr-11 14:32N 38°42' W 009°10'0 0.0
2015-Apr-11 13:33N 38°42' W 009°10'0 0.0
2015-Apr-11 12:30N 38°42' W 009°10'0 0.0
2015-Apr-11 11:33N 38°42' W 009°10'0 0.0
2015-Apr-11 10:33N 38°42' W 009°10'0 0.0
2015-Apr-11 09:33N 38°42' W 009°10'0 0.0
2015-Apr-11 08:33N 38°42' W 009°10'0 0.0
2015-Apr-11 07:32N 38°42' W 009°10'0 0.0
2015-Apr-11 06:33N 38°42' W 009°10'0 0.0
2015-Apr-11 05:33N 38°42' W 009°10'0 0.0
2015-Apr-11 04:33N 38°42' W 009°10'0 0.0
2015-Apr-11 03:32N 38°42' W 009°10'0 0.0
2015-Apr-11 02:31N 38°42' W 009°10'0 0.0
2015-Apr-11 01:33N 38°42' W 009°10'0 0.0
2015-Apr-11 00:32N 38°42' W 009°10'0 0.0
2015-Apr-10 23:33N 38°42' W 009°10'0 0.0
2015-Apr-10 22:33N 38°42' W 009°10'0 0.0
2015-Apr-10 21:29N 38°42' W 009°10'0 0.0
2015-Apr-10 20:33N 38°42' W 009°10'0 0.0
2015-Apr-10 19:33N 38°42' W 009°10'2 2.0
2015-Apr-10 18:33N 38°40' W 009°09'2 2.0
2015-Apr-10 17:33N 38°42' W 009°10'0 0.0
2015-Apr-10 16:32N 38°42' W 009°10'0 0.0
2015-Apr-10 15:33N 38°42' W 009°10'0 0.0
2015-Apr-10 14:31N 38°42' W 009°10'0 0.0
2015-Apr-10 13:30N 38°42' W 009°10'0 0.0
2015-Apr-10 12:27N 38°42' W 009°10'0 0.0
2015-Apr-10 11:33N 38°42' W 009°10'0 0.0
2015-Apr-10 10:33N 38°42' W 009°10'0 0.0
2015-Apr-10 09:33N 38°42' W 009°10'0 0.0
2015-Apr-10 08:33N 38°42' W 009°10'0 0.0
2015-Apr-10 07:32N 38°42' W 009°10'0 0.0
2015-Apr-10 06:33N 38°42' W 009°10'0 0.0
2015-Apr-10 05:31N 38°42' W 009°10'0 0.0
2015-Apr-10 04:33N 38°42' W 009°10'0 0.0
2015-Apr-10 03:32N 38°42' W 009°10'0 0.0
2015-Apr-10 02:33N 38°42' W 009°10'0 0.0
2015-Apr-10 01:31N 38°42' W 009°10'0 0.0
2015-Apr-10 00:32N 38°42' W 009°10'0 0.0
2015-Apr-09 23:33N 38°42' W 009°10'0 0.0
2015-Apr-09 22:33N 38°42' W 009°10'0 0.0
2015-Apr-09 21:33N 38°42' W 009°10'0 0.0
2015-Apr-09 20:33N 38°42' W 009°10'0 0.0
2015-Apr-09 19:33N 38°42' W 009°10'0 0.0
2015-Apr-09 18:31N 38°42' W 009°10'0 0.0
2015-Apr-09 17:33N 38°42' W 009°10'0 0.0
2015-Apr-09 16:31N 38°42' W 009°10'0 0.0
2015-Apr-09 15:33N 38°42' W 009°10'0 0.0
2015-Apr-09 14:32N 38°42' W 009°10'0 0.0
2015-Apr-09 13:33N 38°42' W 009°10'0 0.0
2015-Apr-09 12:33N 38°42' W 009°10'0 0.0
2015-Apr-09 11:31N 38°42' W 009°10'0 0.0
2015-Apr-09 10:32N 38°42' W 009°10'0 0.0
2015-Apr-09 09:33N 38°42' W 009°10'0 0.0
2015-Apr-09 08:33N 38°42' W 009°10'0 0.0
2015-Apr-09 07:33N 38°42' W 009°10'0 0.0
2015-Apr-09 06:33N 38°42' W 009°10'0 0.0
2015-Apr-09 05:33N 38°42' W 009°10'0 0.0
2015-Apr-09 04:33N 38°42' W 009°10'0 0.0
2015-Apr-09 03:33N 38°42' W 009°10'0 0.0
2015-Apr-09 02:31N 38°42' W 009°10'0 0.0
2015-Apr-09 01:33N 38°42' W 009°10'0 0.0
2015-Apr-09 00:33N 38°42' W 009°10'0 0.0
2015-Apr-08 23:33N 38°42' W 009°10'0 0.0
2015-Apr-08 22:33N 38°42' W 009°10'0 0.0
2015-Apr-08 21:32N 38°42' W 009°10'0 0.0
2015-Apr-08 20:31N 38°42' W 009°10'0 0.0
2015-Apr-08 19:33N 38°42' W 009°10'  

Dump ship's entire track history